createdAt,value
2017-09-26T00:00:28.918Z,26.33
2017-09-26T00:02:57.562Z,22.23
2017-09-26T00:05:25.881Z,19.17
2017-09-26T00:07:53.411Z,20.10
2017-09-26T00:10:21.253Z,21.33
2017-09-26T00:12:48.789Z,18.37
2017-09-26T00:15:17.094Z,19.07
2017-09-26T00:17:44.959Z,21.80
2017-09-26T00:20:12.488Z,20.60
2017-09-26T00:22:40.786Z,21.67
2017-09-26T00:25:14.694Z,20.97
2017-09-26T00:27:42.224Z,22.87
2017-09-26T00:30:09.747Z,21.77
2017-09-26T00:32:37.633Z,20.20
2017-09-26T00:35:05.249Z,20.97
2017-09-26T00:37:32.780Z,20.93
2017-09-26T00:40:01.361Z,20.67
2017-09-26T00:42:29.667Z,18.27
2017-09-26T00:44:57.216Z,22.43
2017-09-26T00:47:25.144Z,22.30
2017-09-26T00:49:52.676Z,21.37
2017-09-26T00:52:20.199Z,20.27
2017-09-26T00:54:49.125Z,19.20
2017-09-26T00:57:16.706Z,21.87
2017-09-26T00:59:44.240Z,18.83
2017-09-26T01:02:12.113Z,20.10
2017-09-26T01:04:52.321Z,21.30
2017-09-26T01:07:36.942Z,19.43
2017-09-26T01:10:04.470Z,22.07
2017-09-26T01:12:32.008Z,19.10
2017-09-26T01:15:00.631Z,20.20
2017-09-26T01:17:28.144Z,19.17
2017-09-26T01:19:56.467Z,21.10
2017-09-26T01:22:24.296Z,21.80
2017-09-26T01:24:52.610Z,22.13
2017-09-26T01:27:20.139Z,21.70
2017-09-26T01:29:48.754Z,20.40
2017-09-26T01:32:16.272Z,21.87
2017-09-26T01:34:43.796Z,20.03
2017-09-26T01:37:11.636Z,20.63
2017-09-26T01:39:39.164Z,20.53
2017-09-26T01:42:06.715Z,20.17
2017-09-26T01:44:34.655Z,24.60
2017-09-26T01:47:02.192Z,21.63
2017-09-26T01:49:29.724Z,20.50
2017-09-26T01:51:58.376Z,19.90
2017-09-26T01:54:25.922Z,20.73
2017-09-26T01:57:00.479Z,23.90
2017-09-26T01:59:28.030Z,21.30
2017-09-26T02:01:55.582Z,20.30
2017-09-26T02:04:23.421Z,19.03
2017-09-26T02:06:50.943Z,26.67
2017-09-26T02:09:19.231Z,21.00
2017-09-26T02:11:47.871Z,24.10
2017-09-26T02:14:15.405Z,21.73
2017-09-26T02:16:43.514Z,24.23
2017-09-26T02:19:11.362Z,25.20
2017-09-26T02:21:38.875Z,20.30
2017-09-26T02:24:07.170Z,22.30
2017-09-26T02:26:34.997Z,22.10
2017-09-26T02:29:02.520Z,23.00
2017-09-26T02:31:30.047Z,25.90
2017-09-26T02:33:57.898Z,22.10
2017-09-26T02:36:26.194Z,24.67
2017-09-26T02:38:53.728Z,23.60
2017-09-26T02:41:22.344Z,21.63
2017-09-26T02:43:49.879Z,22.30
2017-09-26T02:46:18.170Z,23.33
2017-09-26T02:48:46.755Z,19.47
2017-09-26T02:51:15.035Z,23.10
2017-09-26T02:53:42.567Z,23.53
2017-09-26T02:56:10.371Z,22.37
2017-09-26T02:58:37.912Z,24.27
2017-09-26T03:01:06.211Z,21.00
2017-09-26T03:03:34.089Z,21.53
2017-09-26T03:06:01.625Z,22.40
2017-09-26T03:08:29.918Z,20.90
2017-09-26T03:10:57.754Z,22.80
2017-09-26T03:13:26.075Z,20.57
2017-09-26T03:15:53.620Z,25.40
2017-09-26T03:18:21.507Z,21.90
2017-09-26T03:20:49.044Z,20.83
2017-09-26T03:23:16.571Z,20.80
2017-09-26T03:25:45.212Z,24.37
2017-09-26T03:28:12.735Z,22.93
2017-09-26T03:30:40.264Z,22.57
2017-09-26T03:33:08.102Z,25.23
2017-09-26T03:35:36.615Z,22.00
2017-09-26T03:38:04.136Z,24.00
2017-09-26T03:40:32.005Z,24.80
2017-09-26T03:42:59.520Z,23.83
2017-09-26T03:45:27.835Z,23.57
2017-09-26T03:47:55.658Z,25.73
2017-09-26T03:50:23.192Z,24.17
2017-09-26T03:52:50.730Z,21.03
2017-09-26T03:55:18.703Z,20.80
2017-09-26T03:57:46.242Z,19.90
2017-09-26T04:00:13.764Z,27.20
2017-09-26T04:02:41.557Z,25.07
2017-09-26T04:05:09.888Z,24.90
2017-09-26T04:07:37.417Z,23.80
2017-09-26T04:10:05.244Z,25.07
2017-09-26T04:12:33.538Z,25.87
2017-09-26T04:15:01.839Z,28.23
2017-09-26T04:17:29.820Z,25.73
2017-09-26T04:19:57.344Z,27.63
2017-09-26T04:22:24.898Z,25.43
2017-09-26T04:24:53.495Z,23.47
2017-09-26T04:27:21.032Z,24.27
2017-09-26T04:29:48.554Z,23.63
2017-09-26T04:32:16.515Z,25.70
2017-09-26T04:34:44.039Z,27.80
2017-09-26T04:37:12.366Z,26.50
2017-09-26T04:39:40.180Z,34.43
2017-09-26T04:42:08.480Z,27.97
2017-09-26T04:44:36.011Z,28.60
2017-09-26T04:47:03.852Z,29.23
2017-09-26T04:49:31.377Z,28.17
2017-09-26T04:51:58.903Z,29.87
2017-09-26T04:54:26.750Z,28.50
2017-09-26T04:56:54.254Z,26.13
2017-09-26T04:59:21.784Z,30.33
2017-09-26T05:01:50.381Z,28.60
2017-09-26T05:04:18.668Z,29.33
2017-09-26T05:06:46.207Z,27.43
2017-09-26T05:09:14.827Z,25.93
2017-09-26T05:11:42.351Z,28.50
2017-09-26T05:14:10.642Z,24.47
2017-09-26T05:16:39.241Z,26.87
2017-09-26T05:19:06.765Z,25.13
2017-09-26T05:21:34.345Z,24.43
2017-09-26T05:24:02.941Z,28.73
2017-09-26T05:26:30.463Z,26.23
2017-09-26T05:28:58.001Z,27.10
2017-09-26T05:31:25.937Z,26.37
2017-09-26T05:33:53.529Z,30.07
2017-09-26T05:36:21.075Z,26.10
2017-09-26T05:38:48.944Z,27.57
2017-09-26T05:41:16.475Z,22.70
2017-09-26T05:43:44.037Z,23.00
2017-09-26T05:46:11.624Z,25.40
2017-09-26T05:48:39.189Z,23.13
2017-09-26T05:51:06.806Z,25.97
2017-09-26T05:53:34.368Z,25.40
2017-09-26T05:56:02.712Z,27.10
2017-09-26T05:58:30.243Z,24.07
2017-09-26T06:00:57.806Z,21.53
2017-09-26T06:03:25.335Z,20.90
2017-09-26T06:05:53.643Z,18.60
2017-09-26T06:08:21.169Z,22.20
2017-09-26T06:10:49.478Z,19.30
2017-09-26T06:13:17.019Z,22.07
2017-09-26T06:15:44.912Z,23.23
2017-09-26T06:18:12.455Z,17.70
2017-09-26T06:20:39.987Z,19.30
2017-09-26T06:23:08.291Z,17.87
2017-09-26T06:25:35.838Z,17.07
2017-09-26T06:28:03.401Z,18.20
2017-09-26T06:30:31.732Z,17.43
2017-09-26T06:32:59.275Z,17.77
2017-09-26T06:35:26.793Z,14.53
2017-09-26T06:37:55.134Z,17.40
2017-09-26T06:40:22.664Z,13.37
2017-09-26T06:42:50.325Z,19.70
2017-09-26T06:45:17.840Z,16.07
2017-09-26T06:47:45.388Z,14.77
2017-09-26T06:50:12.912Z,14.53
2017-09-26T06:52:40.483Z,15.40
2017-09-26T06:55:08.039Z,13.73
2017-09-26T06:57:35.572Z,16.20
2017-09-26T07:00:03.096Z,15.30
2017-09-26T07:02:30.669Z,13.83
2017-09-26T07:04:58.975Z,14.97
2017-09-26T07:07:26.520Z,13.83
2017-09-26T07:09:54.063Z,13.90
2017-09-26T07:12:22.385Z,16.60
2017-09-26T07:14:49.919Z,16.50
2017-09-26T07:17:17.475Z,16.50
2017-09-26T07:19:45.749Z,12.90
2017-09-26T07:22:14.080Z,13.87
2017-09-26T07:24:41.604Z,14.23
2017-09-26T07:27:09.863Z,14.20
2017-09-26T07:29:38.174Z,14.53
2017-09-26T07:32:05.723Z,12.73
2017-09-26T07:34:33.244Z,12.87
2017-09-26T07:37:00.788Z,13.47
2017-09-26T07:39:28.346Z,12.73
2017-09-26T07:41:55.879Z,14.73
2017-09-26T07:44:23.425Z,13.03
2017-09-26T07:46:50.958Z,13.63
2017-09-26T07:49:19.283Z,13.63
2017-09-26T07:51:46.800Z,12.97
2017-09-26T07:54:14.368Z,12.57
2017-09-26T07:56:41.918Z,12.80
2017-09-26T07:59:10.235Z,10.90
2017-09-26T08:01:37.757Z,12.17
2017-09-26T08:04:06.308Z,11.63
2017-09-26T08:06:33.961Z,11.70
2017-09-26T08:09:01.699Z,11.43
2017-09-26T08:11:29.217Z,12.90
2017-09-26T08:13:56.766Z,12.30
2017-09-26T08:16:24.294Z,10.53
2017-09-26T08:18:51.858Z,14.57
2017-09-26T08:21:19.371Z,11.17
2017-09-26T08:23:46.928Z,11.67
2017-09-26T08:26:15.219Z,13.57
2017-09-26T08:28:43.622Z,10.73
2017-09-26T08:31:11.164Z,11.70
2017-09-26T08:33:38.742Z,10.27
2017-09-26T08:36:06.263Z,9.57
2017-09-26T08:38:34.577Z,11.80
2017-09-26T08:41:02.105Z,11.07
2017-09-26T08:43:30.425Z,10.90
2017-09-26T08:45:57.953Z,11.77
2017-09-26T08:48:26.270Z,11.00
2017-09-26T08:50:53.798Z,11.33
2017-09-26T08:53:21.316Z,8.70
2017-09-26T08:55:48.872Z,11.70
2017-09-26T08:58:16.406Z,10.20
2017-09-26T09:00:43.947Z,9.87
2017-09-26T09:03:11.469Z,9.37
2017-09-26T09:05:39.019Z,12.80
2017-09-26T09:08:07.340Z,9.43
2017-09-26T09:10:34.895Z,10.30
2017-09-26T09:13:02.414Z,9.70
2017-09-26T09:15:29.956Z,9.77
2017-09-26T09:17:57.483Z,10.50
2017-09-26T09:20:25.058Z,9.87
2017-09-26T09:22:52.580Z,9.97
2017-09-26T09:25:20.903Z,9.60
2017-09-26T09:27:48.450Z,10.53
2017-09-26T09:30:15.998Z,9.70
2017-09-26T09:32:43.593Z,11.50
2017-09-26T09:35:11.151Z,8.67
2017-09-26T09:37:38.675Z,10.70
2017-09-26T09:40:06.984Z,9.90
2017-09-26T09:42:34.506Z,9.67
2017-09-26T09:45:02.813Z,9.70
2017-09-26T09:47:30.355Z,10.37
2017-09-26T09:49:57.955Z,11.03
2017-09-26T09:52:25.464Z,9.87
2017-09-26T09:54:53.781Z,9.13
2017-09-26T09:57:21.300Z,8.77
2017-09-26T09:59:49.631Z,9.63
2017-09-26T10:02:17.145Z,8.77
2017-09-26T10:04:44.695Z,11.70
2017-09-26T10:07:12.991Z,9.00
2017-09-26T10:09:40.531Z,9.33
2017-09-26T10:12:08.866Z,8.20
2017-09-26T10:14:36.395Z,10.00
2017-09-26T10:17:03.945Z,10.73
2017-09-26T10:19:31.472Z,12.73
2017-09-26T10:21:59.026Z,10.60
2017-09-26T10:24:26.572Z,10.33
2017-09-26T10:26:54.134Z,9.37
2017-09-26T10:29:21.665Z,7.90
2017-09-26T10:31:49.215Z,8.17
2017-09-26T10:34:16.744Z,8.73
2017-09-26T10:36:45.052Z,7.60
2017-09-26T10:39:12.695Z,8.50
2017-09-26T10:41:41.022Z,8.30
2017-09-26T10:44:08.553Z,7.30
2017-09-26T10:46:36.100Z,8.10
2017-09-26T10:49:03.639Z,7.83
2017-09-26T10:51:31.215Z,7.50
2017-09-26T10:53:59.495Z,8.37
2017-09-26T10:56:27.811Z,9.90
2017-09-26T10:58:55.330Z,10.07
2017-09-26T11:01:23.688Z,7.93
2017-09-26T11:03:51.229Z,8.63
2017-09-26T11:06:18.797Z,7.20
2017-09-26T11:08:46.334Z,8.13
2017-09-26T11:11:13.992Z,6.80
2017-09-26T11:13:41.532Z,7.80
2017-09-26T11:16:09.085Z,8.00
2017-09-26T11:18:36.607Z,7.70
2017-09-26T11:21:04.181Z,7.00
2017-09-26T11:23:32.470Z,9.90
2017-09-26T11:26:01.088Z,6.93
2017-09-26T11:28:28.608Z,6.10
2017-09-26T11:30:56.894Z,7.03
2017-09-26T11:33:25.431Z,6.90
2017-09-26T11:35:52.935Z,7.70
2017-09-26T11:38:21.260Z,6.50
2017-09-26T11:40:48.780Z,6.03
2017-09-26T11:43:17.116Z,5.67
2017-09-26T11:45:44.666Z,6.93
2017-09-26T11:48:12.220Z,6.10
2017-09-26T11:50:39.735Z,5.87
2017-09-26T11:53:08.048Z,6.63
2017-09-26T11:55:35.589Z,6.30
2017-09-26T11:58:03.132Z,6.53
2017-09-26T12:00:31.440Z,6.80
2017-09-26T12:02:58.997Z,6.23
2017-09-26T12:05:26.523Z,5.57
2017-09-26T12:07:54.835Z,6.63
2017-09-26T12:10:22.778Z,6.30
2017-09-26T12:12:58.366Z,6.23
2017-09-26T12:15:25.901Z,6.23
2017-09-26T12:17:53.479Z,6.47
2017-09-26T12:20:20.999Z,6.17
2017-09-26T12:22:48.682Z,6.73
2017-09-26T12:25:17.358Z,7.10
2017-09-26T12:27:45.683Z,6.40
2017-09-26T12:30:13.244Z,6.43
2017-09-26T12:32:40.814Z,7.10
2017-09-26T12:35:08.381Z,7.23
2017-09-26T12:37:35.966Z,7.53
2017-09-26T12:40:03.529Z,7.23
2017-09-26T12:42:32.973Z,8.37
2017-09-26T12:45:00.575Z,6.33
2017-09-26T12:47:28.117Z,6.53
2017-09-26T12:49:57.009Z,6.60
2017-09-26T12:52:25.608Z,6.60
2017-09-26T12:54:54.079Z,7.07
2017-09-26T12:57:21.629Z,7.30
2017-09-26T12:59:49.233Z,7.03
2017-09-26T13:02:17.533Z,7.13
2017-09-26T13:04:45.919Z,7.07
2017-09-26T13:07:13.528Z,7.00
2017-09-26T13:09:41.215Z,6.90
2017-09-26T13:12:08.761Z,7.60
2017-09-26T13:14:36.341Z,7.13
2017-09-26T13:17:06.394Z,6.37
2017-09-26T13:19:34.033Z,7.17
2017-09-26T13:22:01.826Z,6.80
2017-09-26T13:24:29.506Z,6.07
2017-09-26T13:26:57.888Z,5.77
2017-09-26T13:29:25.548Z,6.50
2017-09-26T13:31:53.356Z,6.70
2017-09-26T13:34:21.084Z,8.30
2017-09-26T13:36:48.672Z,6.53
2017-09-26T13:39:16.315Z,6.50
2017-09-26T13:41:43.935Z,6.80
2017-09-26T13:44:11.619Z,6.23
2017-09-26T13:46:39.204Z,7.00
2017-09-26T13:49:06.830Z,6.37
2017-09-26T13:51:34.354Z,5.77
2017-09-26T13:54:03.406Z,5.50
2017-09-26T13:56:31.817Z,6.10
2017-09-26T13:58:59.369Z,5.53
2017-09-26T14:01:28.843Z,6.10
2017-09-26T14:03:56.523Z,5.90
2017-09-26T14:06:24.157Z,5.87
2017-09-26T14:08:51.750Z,6.30
2017-09-26T14:11:19.265Z,5.93
2017-09-26T14:13:47.668Z,5.00
2017-09-26T14:16:16.775Z,5.40
2017-09-26T14:18:44.396Z,5.20
2017-09-26T14:21:13.542Z,6.27
2017-09-26T14:23:54.610Z,6.90
2017-09-26T14:26:22.358Z,4.80
2017-09-26T14:28:50.697Z,5.00
2017-09-26T14:31:34.681Z,7.60
2017-09-26T14:34:46.498Z,4.73
2017-09-26T14:37:38.530Z,5.60
2017-09-26T14:40:06.339Z,12.00
2017-09-26T15:02:40.034Z,12.47
2017-09-26T15:05:07.858Z,8.20
2017-09-26T15:08:20.655Z,7.43
2017-09-26T15:10:48.484Z,6.00
2017-09-26T15:13:16.170Z,6.93
2017-09-26T15:15:43.802Z,7.27
2017-09-26T15:18:11.368Z,6.70
2017-09-26T15:20:39.257Z,6.60
2017-09-26T15:23:09.672Z,8.40
2017-09-26T15:25:37.447Z,7.13
2017-09-26T15:28:05.158Z,7.13
2017-09-26T15:30:32.903Z,8.47
2017-09-26T15:33:00.544Z,7.40
2017-09-26T15:35:28.856Z,7.20
2017-09-26T15:37:56.381Z,6.90
2017-09-26T15:40:24.005Z,8.47
2017-09-26T15:42:52.292Z,7.97
2017-09-26T15:45:19.800Z,8.50
2017-09-26T15:47:47.349Z,8.47
2017-09-26T15:50:15.920Z,7.70
2017-09-26T15:52:43.685Z,8.40
2017-09-26T15:55:11.210Z,7.77
2017-09-26T15:57:39.536Z,7.40
2017-09-26T16:00:07.836Z,7.80
2017-09-26T16:02:35.389Z,9.33
2017-09-26T16:05:02.916Z,8.07
2017-09-26T16:07:30.507Z,9.17
2017-09-26T16:09:58.032Z,8.40
2017-09-26T16:12:25.618Z,8.40
2017-09-26T16:14:53.200Z,7.60
2017-09-26T16:17:20.761Z,9.00
2017-09-26T16:19:48.270Z,8.73
2017-09-26T16:22:15.827Z,8.17
2017-09-26T16:24:43.852Z,8.90
2017-09-26T16:27:11.425Z,8.50
2017-09-26T16:29:38.976Z,8.97
2017-09-26T16:32:06.572Z,10.53
2017-09-26T16:34:34.875Z,9.37
2017-09-26T16:37:02.541Z,9.10
2017-09-26T16:39:30.072Z,9.33
2017-09-26T16:41:58.424Z,8.20
2017-09-26T16:44:27.413Z,10.07
2017-09-26T16:46:55.004Z,8.33
2017-09-26T16:49:24.177Z,9.30
2017-09-26T16:51:52.624Z,9.00
2017-09-26T16:54:20.204Z,8.47
2017-09-26T16:56:47.868Z,8.27
2017-09-26T16:59:15.462Z,8.93
2017-09-26T17:01:43.997Z,9.80
2017-09-26T17:04:11.546Z,8.10
2017-09-26T17:06:39.106Z,8.40
2017-09-26T17:09:06.935Z,7.80
2017-09-26T17:11:34.637Z,10.73
2017-09-26T17:14:02.990Z,10.47
2017-09-26T17:16:30.713Z,10.20
2017-09-26T17:18:58.372Z,8.30
2017-09-26T17:21:26.791Z,8.23
2017-09-26T17:23:54.427Z,8.63
2017-09-26T17:26:22.025Z,8.70
2017-09-26T17:28:49.837Z,10.67
2017-09-26T17:31:17.492Z,10.13
2017-09-26T17:33:45.126Z,8.27
2017-09-26T17:36:12.880Z,8.40
2017-09-26T17:38:41.331Z,9.20
2017-09-26T17:41:08.931Z,8.50
2017-09-26T17:43:38.118Z,8.97
2017-09-26T17:46:06.284Z,9.57
2017-09-26T17:48:34.716Z,10.70
2017-09-26T17:51:02.433Z,9.00
2017-09-26T17:53:30.161Z,9.27
2017-09-26T17:55:57.739Z,10.10
2017-09-26T17:58:25.401Z,12.63
2017-09-26T18:00:52.928Z,10.07
2017-09-26T18:03:21.000Z,8.70
2017-09-26T18:05:48.623Z,10.10
2017-09-26T18:08:16.283Z,8.97
2017-09-26T18:10:44.670Z,10.03
2017-09-26T18:13:12.308Z,9.87
2017-09-26T18:15:41.842Z,11.30
2017-09-26T18:18:10.791Z,11.27
2017-09-26T18:20:39.104Z,10.33
2017-09-26T18:23:08.051Z,10.00
2017-09-26T18:25:35.749Z,10.80
2017-09-26T18:28:03.867Z,10.93
2017-09-26T18:33:59.860Z,10.87
2017-09-26T18:39:13.619Z,11.83
2017-09-26T18:41:43.902Z,12.60
2017-09-26T18:44:12.276Z,14.73
2017-09-26T18:46:39.929Z,15.33
2017-09-26T18:49:07.514Z,15.97
2017-09-26T18:51:35.292Z,13.57
2017-09-26T18:54:02.859Z,18.43
2017-09-26T18:56:30.448Z,17.60
2017-09-26T18:58:58.810Z,19.77
2017-09-26T19:01:27.164Z,17.83
2017-09-26T19:03:54.724Z,19.80
2017-09-26T19:06:22.467Z,18.70
2017-09-26T19:08:50.027Z,17.53
2017-09-26T19:11:17.601Z,27.10
2017-09-26T19:13:45.169Z,19.10
2017-09-26T19:16:12.771Z,21.73
2017-09-26T19:18:41.073Z,22.77
2017-09-26T19:21:08.628Z,23.73
2017-09-26T19:23:36.241Z,21.97
2017-09-26T19:26:03.802Z,21.80
2017-09-26T19:28:31.446Z,26.47
2017-09-26T19:30:59.022Z,23.93
2017-09-26T19:33:26.646Z,32.03
2017-09-26T19:35:54.384Z,29.50
2017-09-26T19:38:22.707Z,28.20
2017-09-26T19:40:50.343Z,31.53
2017-09-26T19:43:17.978Z,29.53
2017-09-26T19:45:45.529Z,27.00
2017-09-26T19:48:13.892Z,33.30
2017-09-26T19:50:41.447Z,28.93
2017-09-26T19:53:09.036Z,33.50
2017-09-26T19:55:37.360Z,29.73
2017-09-26T19:58:04.926Z,31.70
2017-09-26T20:00:32.448Z,28.13
2017-09-26T20:03:00.791Z,33.70
2017-09-26T20:05:28.354Z,35.90
2017-09-26T20:07:55.941Z,31.07
2017-09-26T20:10:23.480Z,31.67
2017-09-26T20:12:51.044Z,35.13
2017-09-26T20:15:18.597Z,32.00
2017-09-26T20:17:46.183Z,34.07
2017-09-26T20:20:13.714Z,30.90
2017-09-26T20:22:41.334Z,29.50
2017-09-26T20:25:09.649Z,30.80
2017-09-26T20:27:37.290Z,29.70
2017-09-26T20:30:04.835Z,31.10
2017-09-26T20:32:32.432Z,33.93
2017-09-26T20:34:59.969Z,31.00
2017-09-26T20:37:27.851Z,33.00
2017-09-26T20:39:55.381Z,31.47
2017-09-26T20:42:22.922Z,30.97
2017-09-26T20:44:51.249Z,34.70
2017-09-26T20:47:18.795Z,35.07
2017-09-26T20:49:46.408Z,38.20
2017-09-26T20:52:13.933Z,35.00
2017-09-26T20:54:41.539Z,38.27
2017-09-26T20:57:09.930Z,33.60
2017-09-26T20:59:38.262Z,45.33
2017-09-26T21:02:05.815Z,37.10
2017-09-26T21:04:33.381Z,35.50
2017-09-26T21:07:00.947Z,36.00
2017-09-26T21:09:28.547Z,34.60
2017-09-26T21:11:56.891Z,35.23
2017-09-26T21:14:24.519Z,38.27
2017-09-26T21:16:52.041Z,39.70
2017-09-26T21:19:20.439Z,39.10
2017-09-26T21:21:47.980Z,32.80
2017-09-26T21:24:15.541Z,36.67
2017-09-26T21:26:43.077Z,35.97
2017-09-26T21:29:10.659Z,37.30
2017-09-26T21:31:38.191Z,37.03
2017-09-26T21:34:05.759Z,37.33
2017-09-26T21:36:33.322Z,33.60
2017-09-26T21:39:01.563Z,36.10
2017-09-26T21:41:29.097Z,34.60
2017-09-26T21:43:56.683Z,34.67
2017-09-26T21:46:25.002Z,37.37
2017-09-26T21:48:52.549Z,35.10
2017-09-26T21:51:20.144Z,37.50
2017-09-26T21:53:48.815Z,32.23
2017-09-26T21:56:17.133Z,33.07
2017-09-26T21:58:44.669Z,33.20
2017-09-26T22:01:13.035Z,38.07
2017-09-26T22:03:40.566Z,38.67
2017-09-26T22:06:08.125Z,34.30
2017-09-26T22:08:35.683Z,41.73
2017-09-26T22:11:03.242Z,38.07
2017-09-26T22:13:30.772Z,30.20
2017-09-26T22:15:58.326Z,50.23
2017-09-26T22:18:25.852Z,32.80
2017-09-26T22:20:53.421Z,40.67
2017-09-26T22:23:20.950Z,31.73
2017-09-26T22:25:48.497Z,37.07
2017-09-26T22:28:16.049Z,32.27
2017-09-26T22:30:43.611Z,29.47
2017-09-26T22:33:11.158Z,30.30
2017-09-26T22:35:38.724Z,29.10
2017-09-26T22:38:06.256Z,29.17
2017-09-26T22:40:34.592Z,36.13
2017-09-26T22:43:02.116Z,29.97
2017-09-26T22:45:30.058Z,35.03
2017-09-26T22:47:57.617Z,30.33
2017-09-26T22:50:25.124Z,30.03
2017-09-26T22:52:52.940Z,28.17
2017-09-26T22:55:20.455Z,29.73
2017-09-26T22:57:47.987Z,28.33
2017-09-26T23:00:15.825Z,28.33
2017-09-26T23:02:43.344Z,23.37
2017-09-26T23:05:10.871Z,26.57
2017-09-26T23:07:39.491Z,26.57
2017-09-26T23:10:07.021Z,25.70
2017-09-26T23:12:34.540Z,27.57
2017-09-26T23:15:02.372Z,27.47
2017-09-26T23:17:29.903Z,29.20
2017-09-26T23:19:57.431Z,29.00
2017-09-26T23:22:25.459Z,27.90
2017-09-26T23:24:52.983Z,24.27
2017-09-26T23:27:21.295Z,25.63
2017-09-26T23:29:49.114Z,26.37
2017-09-26T23:32:16.656Z,23.47
2017-09-26T23:34:44.208Z,26.33
2017-09-26T23:37:12.056Z,25.47
2017-09-26T23:39:39.580Z,20.73
2017-09-26T23:42:07.879Z,27.70
2017-09-26T23:44:35.730Z,24.40
2017-09-26T23:47:04.018Z,22.67
2017-09-26T23:49:31.568Z,25.10
2017-09-26T23:51:59.488Z,21.37
2017-09-26T23:54:27.024Z,24.30
2017-09-26T23:56:54.559Z,21.73
2017-09-26T23:59:22.646Z,24.63
